createdAt,value
2022-11-02T00:00:36.351Z,99487.73
2022-11-02T00:03:24.611Z,99487.23
2022-11-02T00:05:52.813Z,99488.45
2022-11-02T00:08:21.103Z,99487.56
2022-11-02T00:10:49.229Z,99490.21
2022-11-02T00:13:21.117Z,99485.38
2022-11-02T00:15:49.494Z,99485.64
2022-11-02T00:18:18.499Z,99486.16
2022-11-02T00:20:46.842Z,99488.23
2022-11-02T00:23:16.265Z,99491.97
2022-11-02T00:25:47.957Z,99492.33
2022-11-02T00:28:16.893Z,99493.45
2022-11-02T00:30:45.202Z,99491.52
2022-11-02T00:33:13.765Z,99483.38
2022-11-02T00:35:42.561Z,99483.50
2022-11-02T00:38:10.761Z,99485.70
2022-11-02T00:40:39.005Z,99484.55
2022-11-02T00:43:07.531Z,99482.61
2022-11-02T00:45:35.933Z,99480.92
2022-11-02T00:48:05.392Z,99482.90
2022-11-02T00:50:34.100Z,99484.02
2022-11-02T00:53:02.507Z,99482.77
2022-11-02T00:55:31.064Z,99482.86
2022-11-02T00:58:04.109Z,99482.36
2022-11-02T01:00:32.635Z,99479.08
2022-11-02T01:03:02.174Z,99479.17
2022-11-02T01:05:30.939Z,99476.83
2022-11-02T01:07:59.203Z,99476.61
2022-11-02T01:10:28.252Z,99477.94
2022-11-02T01:12:56.436Z,99481.04
2022-11-02T01:15:24.637Z,99482.09
2022-11-02T01:17:54.437Z,99477.45
2022-11-02T01:20:22.727Z,99474.31
2022-11-02T01:22:50.917Z,99480.44
2022-11-02T01:25:20.653Z,99475.70
2022-11-02T01:27:48.949Z,99476.95
2022-11-02T01:30:17.164Z,99476.06
2022-11-02T01:32:45.376Z,99472.82
2022-11-02T01:35:13.879Z,99476.63
2022-11-02T01:37:42.024Z,99475.20
2022-11-02T01:40:10.830Z,99479.84
2022-11-02T01:42:39.153Z,99475.11
2022-11-02T01:45:07.925Z,99471.83
2022-11-02T01:47:39.350Z,99472.95
2022-11-02T01:50:21.124Z,99480.20
2022-11-02T01:52:49.667Z,99482.66
2022-11-02T01:55:23.023Z,99484.92
2022-11-02T01:57:58.237Z,99481.02
2022-11-02T02:00:26.932Z,99482.73
2022-11-02T02:03:06.687Z,99479.64
2022-11-02T02:05:41.000Z,99478.34
2022-11-02T02:08:10.784Z,99480.45
2022-11-02T02:10:39.406Z,99483.55
2022-11-02T02:13:07.900Z,99482.86
2022-11-02T02:16:14.132Z,99481.63
2022-11-02T02:18:55.632Z,99484.80
2022-11-02T02:21:42.441Z,99486.28
2022-11-02T02:24:38.927Z,99489.06
2022-11-02T02:27:16.835Z,99490.34
2022-11-02T02:30:14.568Z,99489.05
2022-11-02T02:32:58.015Z,99488.30
2022-11-02T02:35:33.725Z,99490.17
2022-11-02T02:38:08.861Z,99496.65
2022-11-02T02:40:40.114Z,99501.14
2022-11-02T02:43:14.039Z,99507.25
2022-11-02T02:45:42.308Z,99501.22
2022-11-02T02:48:15.238Z,99506.20
2022-11-02T02:51:04.439Z,99508.08
2022-11-02T02:53:38.704Z,99510.29
2022-11-02T02:56:07.970Z,99513.33
2022-11-02T02:58:49.688Z,99514.45
2022-11-02T03:01:19.912Z,99512.48
2022-11-02T03:03:48.431Z,99510.02
2022-11-02T03:06:23.487Z,99508.35
2022-11-02T03:09:31.274Z,99509.46
2022-11-02T03:12:04.644Z,99508.29
2022-11-02T03:14:35.813Z,99507.16
2022-11-02T03:17:29.168Z,99511.20
2022-11-02T03:20:15.801Z,99513.82
2022-11-02T03:22:55.961Z,99513.35
2022-11-02T03:25:33.081Z,99512.00
2022-11-02T03:28:47.001Z,99515.83
2022-11-02T03:31:27.587Z,99519.89
2022-11-02T03:34:15.084Z,99522.19
2022-11-02T03:36:46.487Z,99523.89
2022-11-02T03:39:20.243Z,99527.80
2022-11-02T03:41:51.977Z,99526.76
2022-11-02T03:44:25.258Z,99530.26
2022-11-02T03:47:02.665Z,99533.14
2022-11-02T03:49:32.772Z,99532.70
2022-11-02T03:52:08.226Z,99532.18
2022-11-02T03:54:52.065Z,99533.50
2022-11-02T03:57:27.604Z,99533.42
2022-11-02T04:00:14.746Z,99530.64
2022-11-02T04:02:49.395Z,99533.96
2022-11-02T04:05:21.000Z,99534.83
2022-11-02T04:08:10.994Z,99537.23
2022-11-02T04:10:59.653Z,99537.55
2022-11-02T04:13:47.527Z,99538.05
2022-11-02T04:16:16.765Z,99536.70
2022-11-02T04:19:03.816Z,99539.48
2022-11-02T04:21:32.244Z,99540.27
2022-11-02T04:24:19.411Z,99543.20
2022-11-02T04:26:47.810Z,99550.38
2022-11-02T04:29:16.881Z,99546.66
2022-11-02T04:31:45.254Z,99544.77
2022-11-02T04:34:14.723Z,99547.42
2022-11-02T04:36:42.990Z,99550.50
2022-11-02T04:39:11.265Z,99553.14
2022-11-02T04:41:42.517Z,99555.77
2022-11-02T04:44:39.796Z,99557.01
2022-11-02T04:47:14.315Z,99557.25
2022-11-02T04:49:42.619Z,99558.13
2022-11-02T04:52:12.659Z,99555.95
2022-11-02T04:54:44.982Z,99555.99
2022-11-02T04:57:13.155Z,99558.48
2022-11-02T04:59:41.509Z,99554.00
2022-11-02T05:02:09.844Z,99549.52
2022-11-02T05:04:39.137Z,99549.80
2022-11-02T05:07:08.826Z,99552.06
2022-11-02T05:09:37.833Z,99553.61
2022-11-02T05:12:06.877Z,99550.39
2022-11-02T05:14:35.765Z,99546.06
2022-11-02T05:17:04.524Z,99550.17
2022-11-02T05:19:33.036Z,99557.92
2022-11-02T05:22:01.661Z,99565.86
2022-11-02T05:24:30.429Z,99575.06
2022-11-02T05:27:00.552Z,99573.90
2022-11-02T05:29:28.913Z,99576.43
2022-11-02T05:31:57.589Z,99578.45
2022-11-02T05:34:26.725Z,99583.36
2022-11-02T05:36:55.238Z,99581.85
2022-11-02T05:39:23.533Z,99580.98
2022-11-02T05:41:51.915Z,99583.62
2022-11-02T05:44:20.524Z,99587.68
2022-11-02T05:46:48.743Z,99585.03
2022-11-02T05:49:16.961Z,99584.62
2022-11-02T05:51:45.272Z,99587.93
2022-11-02T05:54:13.420Z,99588.89
2022-11-02T05:56:41.781Z,99589.60
2022-11-02T05:59:10.342Z,99592.25
2022-11-02T06:01:39.349Z,99597.34
2022-11-02T06:04:07.712Z,99595.45
2022-11-02T06:06:36.060Z,99596.16
2022-11-02T06:09:07.132Z,99598.15
2022-11-02T06:11:35.855Z,99602.88
2022-11-02T06:14:04.254Z,99605.79
2022-11-02T06:16:32.708Z,99605.71
2022-11-02T06:19:00.966Z,99608.09
2022-11-02T06:21:29.256Z,99609.06
2022-11-02T06:23:59.200Z,99608.09
2022-11-02T06:26:27.492Z,99606.63
2022-11-02T06:28:55.919Z,99606.94
2022-11-02T06:31:24.121Z,99609.65
2022-11-02T06:33:52.381Z,99609.73
2022-11-02T06:36:20.576Z,99613.54
2022-11-02T06:38:48.799Z,99613.27
2022-11-02T06:41:17.366Z,99608.88
2022-11-02T06:43:45.570Z,99610.20
2022-11-02T06:46:13.782Z,99614.95
2022-11-02T06:48:42.150Z,99610.25
2022-11-02T06:51:10.378Z,99617.32
2022-11-02T06:53:38.774Z,99614.89
2022-11-02T06:56:07.277Z,99614.45
2022-11-02T06:58:35.444Z,99613.21
2022-11-02T07:01:09.562Z,99610.27
2022-11-02T07:03:37.994Z,99609.22
2022-11-02T07:06:11.112Z,99610.44
2022-11-02T07:08:42.716Z,99614.05
2022-11-02T07:11:16.332Z,99615.30
2022-11-02T07:13:44.975Z,99616.25
2022-11-02T07:16:13.343Z,99617.66
2022-11-02T07:18:41.847Z,99619.19
2022-11-02T07:21:12.078Z,99613.83
2022-11-02T07:23:40.370Z,99615.39
2022-11-02T07:26:08.680Z,99620.59
2022-11-02T07:28:38.514Z,99615.98
2022-11-02T07:31:06.870Z,99612.44
2022-11-02T07:33:35.122Z,99611.88
2022-11-02T07:36:05.702Z,99608.61
2022-11-02T07:38:34.061Z,99606.23
2022-11-02T07:41:02.989Z,99608.77
2022-11-02T07:43:38.761Z,99609.81
2022-11-02T07:46:35.797Z,99610.77
2022-11-02T07:49:04.067Z,99610.58
2022-11-02T07:51:32.280Z,99607.01
2022-11-02T07:54:01.739Z,99600.53
2022-11-02T07:56:29.957Z,99597.30
2022-11-02T07:58:58.236Z,99598.97
2022-11-02T08:01:26.469Z,99599.38
2022-11-02T08:03:54.955Z,99597.19
2022-11-02T08:06:23.221Z,99590.05
2022-11-02T08:08:51.496Z,99589.72
2022-11-02T08:11:39.682Z,99593.46
2022-11-02T08:14:08.277Z,99595.13
2022-11-02T08:16:36.594Z,99596.14
2022-11-02T08:19:05.008Z,99597.08
2022-11-02T08:21:33.305Z,99593.94
2022-11-02T08:24:01.677Z,99591.02
2022-11-02T08:26:30.035Z,99593.65
2022-11-02T08:28:58.532Z,99591.55
2022-11-02T08:31:26.854Z,99594.48
2022-11-02T08:33:55.392Z,99592.28
2022-11-02T08:36:23.661Z,99589.86
2022-11-02T08:38:52.027Z,99590.01
2022-11-02T08:41:20.342Z,99588.94
2022-11-02T08:43:48.644Z,99590.09
2022-11-02T08:46:18.092Z,99590.50
2022-11-02T08:48:46.828Z,99592.08
2022-11-02T08:51:15.481Z,99592.51
2022-11-02T08:53:48.672Z,99592.17
2022-11-02T08:56:18.887Z,99591.03
2022-11-02T08:58:47.268Z,99588.34
2022-11-02T09:01:15.652Z,99583.29
2022-11-02T09:03:43.919Z,99579.92
2022-11-02T09:06:12.193Z,99577.17
2022-11-02T09:08:40.441Z,99573.12
2022-11-02T09:11:08.781Z,99565.48
2022-11-02T09:13:38.249Z,99563.52
2022-11-02T09:16:06.982Z,99565.34
2022-11-02T09:18:35.409Z,99560.65
2022-11-02T09:21:05.059Z,99557.00
2022-11-02T09:23:33.800Z,99559.05
2022-11-02T09:26:02.083Z,99557.75
2022-11-02T09:28:31.164Z,99559.09
2022-11-02T09:30:59.516Z,99558.61
2022-11-02T09:33:29.954Z,99559.63
2022-11-02T09:36:03.568Z,99559.96
2022-11-02T09:38:32.072Z,99563.73
2022-11-02T09:41:00.405Z,99565.08
2022-11-02T09:43:42.480Z,99568.08
2022-11-02T09:46:20.952Z,99567.98
2022-11-02T09:48:54.430Z,99563.86
2022-11-02T09:51:53.705Z,99564.97
2022-11-02T09:54:34.763Z,99562.20
2022-11-02T09:57:15.084Z,99561.84
2022-11-02T09:59:43.712Z,99561.23
2022-11-02T10:02:49.618Z,99552.88
2022-11-02T10:05:45.719Z,99553.43
2022-11-02T10:08:32.664Z,99551.68
2022-11-02T10:11:41.784Z,99552.56
2022-11-02T10:14:12.873Z,99553.13
2022-11-02T10:17:04.816Z,99554.10
2022-11-02T10:19:38.424Z,99555.64
2022-11-02T10:22:12.338Z,99553.23
2022-11-02T10:24:46.564Z,99552.43
2022-11-02T10:27:27.312Z,99553.81
2022-11-02T10:30:16.293Z,99553.91
2022-11-02T10:32:47.628Z,99556.11
2022-11-02T10:35:41.212Z,99557.48
2022-11-02T10:38:41.126Z,99556.08
2022-11-02T10:41:12.364Z,99556.44
2022-11-02T10:44:08.863Z,99555.55
2022-11-02T10:46:43.013Z,99549.96
2022-11-02T10:49:34.126Z,99545.84
2022-11-02T10:52:02.547Z,99545.85
2022-11-02T10:54:34.706Z,99538.85
2022-11-02T10:57:14.625Z,99535.29
2022-11-02T10:59:42.935Z,99536.85
2022-11-02T11:02:15.103Z,99540.54
2022-11-02T11:04:43.689Z,99538.27
2022-11-02T11:07:26.572Z,99538.41
2022-11-02T11:09:56.925Z,99536.92
2022-11-02T11:12:31.539Z,99536.95
2022-11-02T11:20:42.307Z,99533.91
2022-11-02T11:23:19.588Z,99534.85
2022-11-02T11:26:06.202Z,99533.89
2022-11-02T11:28:52.294Z,99532.93
2022-11-02T11:31:21.297Z,99523.27
2022-11-02T11:33:54.165Z,99523.27
2022-11-02T11:39:06.807Z,99519.69
2022-11-02T11:41:40.651Z,99514.24
2022-11-02T11:44:14.916Z,99520.91
2022-11-02T11:46:50.843Z,99524.93
2022-11-02T11:50:07.366Z,99522.47
2022-11-02T11:52:24.506Z,99520.91
2022-11-02T11:54:58.040Z,99522.54
2022-11-02T11:57:29.648Z,99522.08
2022-11-02T12:00:01.959Z,99517.02
2022-11-02T12:02:37.898Z,99513.08
2022-11-02T12:05:18.808Z,99512.43
2022-11-02T12:07:57.708Z,99515.95
2022-11-02T12:10:57.165Z,99515.38
2022-11-02T12:14:03.941Z,99513.34
2022-11-02T12:17:01.185Z,99510.83
2022-11-02T12:19:38.672Z,99509.59
2022-11-02T12:22:16.609Z,99507.14
2022-11-02T12:25:19.114Z,99505.48
2022-11-02T12:28:19.521Z,99504.23
2022-11-02T12:31:23.073Z,99505.46
2022-11-02T12:34:31.245Z,99502.22
2022-11-02T12:37:39.948Z,99509.19
2022-11-02T12:40:09.520Z,99506.77
2022-11-02T12:42:50.439Z,99503.45
2022-11-02T12:45:58.449Z,99504.48
2022-11-02T12:48:34.896Z,99504.88
2022-11-02T12:51:13.504Z,99508.02
2022-11-02T12:53:50.628Z,99507.06
2022-11-02T12:56:31.299Z,99508.70
2022-11-02T12:59:00.871Z,99505.64
2022-11-02T13:01:40.984Z,99505.25
2022-11-02T13:04:30.336Z,99506.59
2022-11-02T13:07:06.581Z,99504.60
2022-11-02T13:09:37.400Z,99502.34
2022-11-02T13:12:19.605Z,99503.59
2022-11-02T13:14:53.712Z,99503.48
2022-11-02T13:17:31.321Z,99506.85
2022-11-02T13:20:07.276Z,99507.35
2022-11-02T13:22:41.177Z,99506.92
2022-11-02T13:25:31.638Z,99506.73
2022-11-02T13:28:07.755Z,99508.61
2022-11-02T13:30:36.630Z,99515.05
2022-11-02T13:33:17.432Z,99514.21
2022-11-02T13:35:46.474Z,99519.34
2022-11-02T13:38:27.146Z,99517.23
2022-11-02T13:41:10.995Z,99517.30
2022-11-02T13:43:45.199Z,99519.87
2022-11-02T13:46:27.825Z,99525.30
2022-11-02T13:49:05.735Z,99524.05
2022-11-02T13:51:49.446Z,99527.40
2022-11-02T13:54:26.236Z,99534.67
2022-11-02T13:56:58.098Z,99533.31
2022-11-02T13:59:30.876Z,99532.16
2022-11-02T14:02:02.856Z,99531.28
2022-11-02T14:04:39.429Z,99531.80
2022-11-02T14:07:41.005Z,99528.44
2022-11-02T14:10:20.019Z,99527.69
2022-11-02T14:12:49.870Z,99531.38
2022-11-02T14:15:18.269Z,99528.63
2022-11-02T14:18:04.911Z,99528.22
2022-11-02T14:20:46.899Z,99533.84
2022-11-02T14:23:16.245Z,99532.11
2022-11-02T14:25:53.467Z,99532.35
2022-11-02T14:28:30.509Z,99532.52
2022-11-02T14:31:21.620Z,99533.32
2022-11-02T14:34:14.318Z,99531.78
2022-11-02T14:37:06.975Z,99532.96
2022-11-02T14:40:00.630Z,99532.95
2022-11-02T14:42:47.457Z,99533.81
2022-11-02T14:45:15.735Z,99532.70
2022-11-02T14:47:44.417Z,99536.85
2022-11-02T14:50:19.349Z,99536.52
2022-11-02T14:53:03.632Z,99539.80
2022-11-02T14:55:37.586Z,99535.81
2022-11-02T14:58:20.410Z,99535.48
2022-11-02T15:00:48.760Z,99535.95
2022-11-02T15:03:26.285Z,99536.89
2022-11-02T15:06:27.364Z,99539.48
2022-11-02T15:09:07.134Z,99537.63
2022-11-02T15:11:50.609Z,99543.25
2022-11-02T15:14:42.215Z,99549.85
2022-11-02T15:17:10.486Z,99550.02
2022-11-02T15:19:46.679Z,99552.74
2022-11-02T15:22:38.498Z,99553.92
2022-11-02T15:25:09.668Z,99557.86
2022-11-02T15:27:41.808Z,99558.59
2022-11-02T15:30:29.636Z,99563.70
2022-11-02T15:33:05.010Z,99568.04
2022-11-02T15:35:37.772Z,99571.55
2022-11-02T15:38:30.546Z,99573.02
2022-11-02T15:41:06.467Z,99579.52
2022-11-02T15:44:02.574Z,99581.26
2022-11-02T15:46:53.719Z,99583.63
2022-11-02T15:50:10.532Z,99590.52
2022-11-02T15:53:21.741Z,99591.11
2022-11-02T15:55:47.628Z,99595.65
2022-11-02T15:58:35.281Z,99597.14
2022-11-02T16:01:12.544Z,99600.55
2022-11-02T16:03:46.943Z,99601.94
2022-11-02T16:06:23.999Z,99599.91
2022-11-02T16:08:52.312Z,99602.70
2022-11-02T16:11:21.609Z,99602.33
2022-11-02T16:14:08.615Z,99609.39
2022-11-02T16:16:49.406Z,99616.58
2022-11-02T16:19:22.417Z,99616.70
2022-11-02T16:21:51.083Z,99618.63
2022-11-02T16:24:20.033Z,99624.66
2022-11-02T16:26:49.259Z,99626.75
2022-11-02T16:29:32.730Z,99624.55
2022-11-02T16:32:01.070Z,99626.34
2022-11-02T16:34:32.087Z,99627.73
2022-11-02T16:37:09.146Z,99627.18
2022-11-02T16:39:42.289Z,99633.48
2022-11-02T16:42:16.925Z,99639.19
2022-11-02T16:44:55.757Z,99640.67
2022-11-02T16:47:40.164Z,99639.86
2022-11-02T16:50:23.702Z,99641.89
2022-11-02T16:52:59.199Z,99641.88
2022-11-02T16:55:40.496Z,99640.60
2022-11-02T16:58:18.468Z,99644.78
2022-11-02T17:01:05.650Z,99650.36
2022-11-02T17:03:34.791Z,99650.00
2022-11-02T17:06:07.075Z,99654.50
2022-11-02T17:08:38.159Z,99659.11
2022-11-02T17:11:13.712Z,99657.45
2022-11-02T17:13:50.940Z,99658.02
2022-11-02T17:16:20.557Z,99658.33
2022-11-02T17:18:49.093Z,99663.27
2022-11-02T17:21:28.020Z,99664.92
2022-11-02T17:24:00.802Z,99664.61
2022-11-02T17:26:34.989Z,99664.95
2022-11-02T17:29:42.285Z,99664.44
2022-11-02T17:32:22.353Z,99667.84
2022-11-02T17:34:56.299Z,99666.21
2022-11-02T17:37:28.116Z,99666.53
2022-11-02T17:40:00.382Z,99673.83
2022-11-02T17:42:48.070Z,99672.14
2022-11-02T17:45:33.897Z,99671.22
2022-11-02T17:48:02.453Z,99671.80
2022-11-02T17:50:33.221Z,99674.14
2022-11-02T17:53:02.973Z,99675.08
2022-11-02T17:55:34.134Z,99673.04
2022-11-02T17:58:02.584Z,99670.59
2022-11-02T18:00:33.408Z,99676.45
2022-11-02T18:03:02.714Z,99676.02
2022-11-02T18:05:35.973Z,99677.55
2022-11-02T18:08:06.553Z,99680.16
2022-11-02T18:10:39.632Z,99682.08
2022-11-02T18:13:12.965Z,99682.30
2022-11-02T18:15:41.674Z,99686.13
2022-11-02T18:18:10.430Z,99688.68
2022-11-02T18:20:41.843Z,99692.13
2022-11-02T18:23:19.409Z,99693.91
2022-11-02T18:25:47.777Z,99693.80
2022-11-02T18:28:16.129Z,99698.04
2022-11-02T18:30:44.756Z,99695.16
2022-11-02T18:33:14.132Z,99697.09
2022-11-02T18:35:42.801Z,99699.42
2022-11-02T18:38:11.955Z,99699.30
2022-11-02T18:40:40.356Z,99697.39
2022-11-02T18:43:09.228Z,99696.16
2022-11-02T18:45:37.958Z,99700.59
2022-11-02T18:48:07.067Z,99701.55
2022-11-02T18:50:35.707Z,99698.48
2022-11-02T18:53:03.991Z,99697.48
2022-11-02T18:55:32.341Z,99701.47
2022-11-02T18:58:00.703Z,99701.70
2022-11-02T19:00:29.042Z,99706.70
2022-11-02T19:02:57.341Z,99706.17
2022-11-02T19:05:45.174Z,99710.05
2022-11-02T19:08:31.857Z,99711.10
2022-11-02T19:11:00.364Z,99707.75
2022-11-02T19:13:28.682Z,99709.02
2022-11-02T19:15:57.128Z,99711.19
2022-11-02T19:18:25.453Z,99712.28
2022-11-02T19:20:53.685Z,99716.54
2022-11-02T19:23:21.920Z,99717.29
2022-11-02T19:25:52.065Z,99725.55
2022-11-02T19:28:20.333Z,99727.79
2022-11-02T19:30:48.702Z,99727.71
2022-11-02T19:33:17.067Z,99727.41
2022-11-02T19:35:55.227Z,99730.48
2022-11-02T19:38:24.824Z,99738.45
2022-11-02T19:41:11.173Z,99745.58
2022-11-02T19:43:41.379Z,99749.13
2022-11-02T19:46:20.570Z,99747.34
2022-11-02T19:48:49.876Z,99748.92
2022-11-02T19:51:25.948Z,99749.27
2022-11-02T19:53:58.425Z,99753.05
2022-11-02T19:56:28.771Z,99753.30
2022-11-02T19:58:57.750Z,99753.27
2022-11-02T20:01:34.497Z,99756.02
2022-11-02T20:04:03.021Z,99757.73
2022-11-02T20:06:39.916Z,99759.55
2022-11-02T20:09:14.647Z,99763.02
2022-11-02T20:11:45.402Z,99767.58
2022-11-02T20:14:16.142Z,99767.42
2022-11-02T20:16:45.345Z,99770.81
2022-11-02T20:19:18.651Z,99775.13
2022-11-02T20:21:47.505Z,99776.89
2022-11-02T20:24:16.504Z,99783.41
2022-11-02T20:26:44.835Z,99786.28
2022-11-02T20:29:17.208Z,99786.41
2022-11-02T20:31:46.734Z,99786.39
2022-11-02T20:34:15.093Z,99789.29
2022-11-02T20:36:43.351Z,99792.48
2022-11-02T20:39:12.204Z,99793.06
2022-11-02T20:41:40.613Z,99794.27
2022-11-02T20:44:08.915Z,99785.29
2022-11-02T20:46:41.531Z,99778.54
2022-11-02T20:49:21.227Z,99776.54
2022-11-02T20:51:58.768Z,99783.23
2022-11-02T20:54:29.904Z,99781.95
2022-11-02T20:56:58.712Z,99783.56
2022-11-02T20:59:27.187Z,99791.12
2022-11-02T21:01:55.526Z,99786.06
2022-11-02T21:04:24.090Z,99796.14
2022-11-02T21:06:52.478Z,99796.60
2022-11-02T21:09:20.769Z,99793.52
2022-11-02T21:12:07.828Z,99790.83
2022-11-02T21:14:36.235Z,99781.83
2022-11-02T21:17:06.165Z,99781.41
2022-11-02T21:19:34.444Z,99778.30
2022-11-02T21:22:02.685Z,99784.91
2022-11-02T21:24:30.984Z,99784.40
2022-11-02T21:26:59.294Z,99788.50
2022-11-02T21:29:27.736Z,99785.52
2022-11-02T21:31:56.113Z,99791.02
2022-11-02T21:34:24.355Z,99793.16
2022-11-02T21:36:52.602Z,99793.66
2022-11-02T21:39:20.955Z,99796.50
2022-11-02T21:41:49.294Z,99793.64
2022-11-02T21:44:17.555Z,99792.66
2022-11-02T21:46:45.996Z,99792.23
2022-11-02T21:49:14.257Z,99792.17
2022-11-02T21:51:43.124Z,99796.05
2022-11-02T21:54:11.527Z,99797.47
2022-11-02T21:56:39.985Z,99794.30
2022-11-02T21:59:09.678Z,99792.80
2022-11-02T22:01:47.523Z,99797.67
2022-11-02T22:04:25.728Z,99797.32
2022-11-02T22:06:59.182Z,99798.73
2022-11-02T22:09:28.475Z,99798.98
2022-11-02T22:12:16.018Z,99796.85
2022-11-02T22:14:45.104Z,99798.15
2022-11-02T22:17:43.325Z,99799.70
2022-11-02T22:20:02.339Z,99808.65
2022-11-02T22:22:31.217Z,99809.91
2022-11-02T22:24:59.647Z,99810.73
2022-11-02T22:27:27.915Z,99811.64
2022-11-02T22:29:56.248Z,99812.34
2022-11-02T22:32:24.490Z,99813.52
2022-11-02T22:34:52.827Z,99813.64
2022-11-02T22:37:39.966Z,99813.56
2022-11-02T22:40:08.715Z,99816.53
2022-11-02T22:42:39.817Z,99819.86
2022-11-02T22:45:10.802Z,99823.62
2022-11-02T22:47:39.131Z,99821.35
2022-11-02T22:50:07.880Z,99824.04
2022-11-02T22:52:36.200Z,99818.75
2022-11-02T22:55:04.742Z,99817.30
2022-11-02T22:57:33.004Z,99813.98
2022-11-02T23:00:01.230Z,99815.48
2022-11-02T23:02:29.578Z,99813.47
2022-11-02T23:04:57.838Z,99814.36
2022-11-02T23:07:26.118Z,99813.70
2022-11-02T23:09:54.432Z,99819.64
2022-11-02T23:12:22.701Z,99817.14
2022-11-02T23:14:50.937Z,99814.43
2022-11-02T23:17:19.192Z,99815.55
2022-11-02T23:19:47.442Z,99817.67
2022-11-02T23:22:30.733Z,99816.56
2022-11-02T23:25:18.206Z,99819.84
2022-11-02T23:28:18.241Z,99823.46
2022-11-02T23:31:05.320Z,99826.35
2022-11-02T23:33:38.011Z,99831.52
2022-11-02T23:36:13.722Z,99833.16
2022-11-02T23:39:02.617Z,99833.18
2022-11-02T23:41:33.087Z,99832.55
2022-11-02T23:44:14.732Z,99836.45
2022-11-02T23:46:45.123Z,99838.42
2022-11-02T23:49:13.948Z,99835.82
2022-11-02T23:52:00.897Z,99835.15
2022-11-02T23:54:47.719Z,99835.44
2022-11-02T23:57:16.084Z,99837.58
2022-11-02T23:59:44.421Z,99837.89
